Time;durP1;ratioP1;P1;durP2;ratioP2;P2;SDS_P1;SDS_P2;PMS_P1;PMS_P2;Temp;Humidity;BMP_temperature;BMP_pressure;BME280_temperature;BME280_humidity;BME280_pressure;Samples;Min_cycle;Max_cycle;Signal;HPM_P1;HPM_P2
2023/04/19 00:02:07;;;;;;;3.15;1.10;;;;;;;;;;20912078;28;20502;-62
2023/04/19 00:12:09;;;;;;;8.50;1.85;;;;;;;;;;20911681;28;20056;-61
2023/04/19 00:22:11;;;;;;;4.18;1.48;;;;;;;;;;20910510;28;20064;-62
2023/04/19 00:32:13;;;;;;;6.50;1.15;;;;;;;;;;20910028;28;20040;-61
2023/04/19 00:42:14;;;;;;;6.38;1.60;;;;;;;;;;20912157;28;20438;-61
2023/04/19 00:52:16;;;;;;;4.13;1.65;;;;;;;;;;20925162;28;20132;-61
2023/04/19 01:02:20;;;;;;;4.78;1.38;;;;;;;;;;20925545;28;20049;-61
2023/04/19 01:12:22;;;;;;;6.50;1.17;;;;;;;;;;20924659;28;20444;-62
2023/04/19 01:22:24;;;;;;;5.63;1.02;;;;;;;;;;20923664;28;20449;-62
2023/04/19 01:32:26;;;;;;;10.85;1.25;;;;;;;;;;20924545;28;20054;-61
2023/04/19 01:42:27;;;;;;;4.47;1.27;;;;;;;;;;20923942;28;20041;-61
2023/04/19 01:52:29;;;;;;;5.95;1.40;;;;;;;;;;20923122;28;20056;-61
2023/04/19 02:02:31;;;;;;;3.50;0.80;;;;;;;;;;20921127;28;20060;-62
2023/04/19 02:12:34;;;;;;;5.00;0.93;;;;;;;;;;20920296;28;20052;-61
2023/04/19 02:22:35;;;;;;;5.22;1.25;;;;;;;;;;20919800;28;20552;-61
2023/04/19 02:32:37;;;;;;;4.60;1.02;;;;;;;;;;20919933;28;20045;-62
2023/04/19 02:42:39;;;;;;;4.60;0.80;;;;;;;;;;20919192;28;20053;-61
2023/04/19 02:52:41;;;;;;;4.80;0.88;;;;;;;;;;20917126;28;20135;-61
2023/04/19 03:02:43;;;;;;;3.35;1.20;;;;;;;;;;20917889;28;20431;-61
2023/04/19 03:12:45;;;;;;;4.47;1.38;;;;;;;;;;20915459;28;20098;-61
2023/04/19 03:22:47;;;;;;;5.88;0.98;;;;;;;;;;20915265;28;20049;-62
2023/04/19 03:32:50;;;;;;;2.97;0.90;;;;;;;;;;20915731;28;20497;-61
2023/04/19 03:42:52;;;;;;;2.97;1.25;;;;;;;;;;20914951;28;20056;-61
2023/04/19 03:52:54;;;;;;;2.78;0.90;;;;;;;;;;20913040;28;20053;-60
2023/04/19 04:02:56;;;;;;;4.15;0.80;;;;;;;;;;20914075;28;20052;-60
2023/04/19 04:12:58;;;;;;;4.53;0.65;;;;;;;;;;20912473;28;20045;-62
2023/04/19 04:22:59;;;;;;;3.15;0.80;;;;;;;;;;20922574;28;20125;-61
2023/04/19 04:33:01;;;;;;;3.42;0.88;;;;;;;;;;20929620;28;20102;-61
2023/04/19 04:43:03;;;;;;;3.03;0.77;;;;;;;;;;20928584;28;20499;-61
2023/04/19 04:53:05;;;;;;;3.75;1.10;;;;;;;;;;20928281;28;20406;-61
2023/04/19 05:03:07;;;;;;;3.38;0.93;;;;;;;;;;20926521;28;20052;-61
2023/04/19 05:13:09;;;;;;;4.72;1.13;;;;;;;;;;20924805;28;20084;-61
2023/04/19 05:23:11;;;;;;;6.70;1.40;;;;;;;;;;20924783;28;20056;-61
2023/04/19 05:33:12;;;;;;;3.67;0.90;;;;;;;;;;20924096;28;20509;-61
2023/04/19 05:43:14;;;;;;;6.10;1.40;;;;;;;;;;20924273;28;20056;-61
2023/04/19 05:53:16;;;;;;;13.70;1.50;;;;;;;;;;20923372;28;20497;-60
2023/04/19 06:03:18;;;;;;;5.97;2.22;;;;;;;;;;20922282;28;20056;-61
2023/04/19 06:13:19;;;;;;;9.73;2.90;;;;;;;;;;20919606;28;20104;-60
2023/04/19 06:23:22;;;;;;;6.57;1.85;;;;;;;;;;20919057;28;20064;-61
2023/04/19 06:33:24;;;;;;;6.25;1.88;;;;;;;;;;20919031;28;20049;-60
2023/04/19 06:43:25;;;;;;;15.48;3.03;;;;;;;;;;20918753;28;20049;-61
2023/04/19 06:53:27;;;;;;;8.25;1.90;;;;;;;;;;20918426;28;20057;-61
2023/04/19 07:03:29;;;;;;;5.70;1.52;;;;;;;;;;20915432;28;20071;-60
2023/04/19 07:13:31;;;;;;;4.43;1.88;;;;;;;;;;20917134;28;20068;-61
2023/04/19 07:23:33;;;;;;;5.68;2.03;;;;;;;;;;20915427;28;20480;-61
2023/04/19 07:33:34;;;;;;;6.53;2.25;;;;;;;;;;20914636;28;20048;-61
2023/04/19 07:43:36;;;;;;;7.93;2.50;;;;;;;;;;20913012;28;20049;-61
2023/04/19 07:53:39;;;;;;;8.95;2.75;;;;;;;;;;20912256;28;20098;-61
2023/04/19 08:03:40;;;;;;;9.55;2.20;;;;;;;;;;20913464;28;20045;-62
2023/04/19 08:13:42;;;;;;;9.13;2.13;;;;;;;;;;20911749;28;20045;-60
2023/04/19 08:23:44;;;;;;;5.22;1.63;;;;;;;;;;20913498;28;20056;-59
2023/04/19 08:33:46;;;;;;;5.55;2.03;;;;;;;;;;20902023;28;20372;-60
2023/04/19 08:43:51;;;;;;;3.90;1.10;;;;;;;;;;20837192;28;20482;-73
2023/04/19 08:53:55;;;;;;;3.67;0.88;;;;;;;;;;20826974;28;20069;-70
2023/04/19 09:03:56;;;;;;;9.90;1.35;;;;;;;;;;20829378;28;20060;-61
2023/04/19 09:14:07;;;;;;;3.58;1.27;;;;;;;;;;20837427;28;20065;-61
2023/04/19 09:24:09;;;;;;;4.07;1.40;;;;;;;;;;20823398;28;20054;-66
2023/04/19 09:34:18;;;;;;;7.95;1.42;;;;;;;;;;20837014;28;20050;-62
2023/04/19 09:44:20;;;;;;;26.25;2.75;;;;;;;;;;20840608;28;20054;-62
2023/04/19 09:54:27;;;;;;;10.70;1.33;;;;;;;;;;20870232;28;20398;-63
2023/04/19 10:04:29;;;;;;;7.47;1.45;;;;;;;;;;20843444;28;20053;-65
2023/04/19 10:14:35;;;;;;;4.50;1.50;;;;;;;;;;20826926;28;20041;-68
2023/04/19 10:24:36;;;;;;;13.75;3.92;;;;;;;;;;20836056;28;20061;-68
2023/04/19 10:34:41;;;;;;;5.15;1.27;;;;;;;;;;20835824;28;20049;-66
2023/04/19 10:45:03;;;;;;;6.07;1.45;;;;;;;;;;20838801;28;20068;-69
2023/04/19 10:55:06;;;;;;;6.43;0.93;;;;;;;;;;20853142;28;20071;-72
2023/04/19 11:05:08;;;;;;;6.30;1.60;;;;;;;;;;20833427;28;20050;-61
2023/04/19 11:15:10;;;;;;;8.45;1.52;;;;;;;;;;20832306;28;20049;-67
2023/04/19 11:25:12;;;;;;;5.90;1.60;;;;;;;;;;20832900;28;20057;-63
2023/04/19 11:35:15;;;;;;;8.45;0.93;;;;;;;;;;20830104;28;20064;-67
2023/04/19 11:45:27;;;;;;;4.07;0.90;;;;;;;;;;20812500;28;20068;-68
2023/04/19 11:55:32;;;;;;;7.68;1.38;;;;;;;;;;20772357;28;20045;-68
2023/04/19 12:05:34;;;;;;;10.38;1.20;;;;;;;;;;20826010;28;20065;-65
2023/04/19 12:15:43;;;;;;;3.80;1.13;;;;;;;;;;20748246;28;20050;-66
2023/04/19 12:25:45;;;;;;;4.45;0.90;;;;;;;;;;20781536;28;20085;-63
2023/04/19 12:35:47;;;;;;;6.22;0.82;;;;;;;;;;20747797;28;20050;-63
2023/04/19 12:45:49;;;;;;;3.85;0.90;;;;;;;;;;20757057;28;20136;-62
2023/04/19 12:55:51;;;;;;;3.33;0.60;;;;;;;;;;20753983;28;20053;-63
2023/04/19 13:05:53;;;;;;;3.70;1.05;;;;;;;;;;20761646;28;20104;-63
2023/04/19 13:15:55;;;;;;;4.68;1.10;;;;;;;;;;20761201;28;20056;-64
2023/04/19 13:25:57;;;;;;;2.08;0.80;;;;;;;;;;20759911;28;20054;-63
2023/04/19 13:35:58;;;;;;;3.13;0.90;;;;;;;;;;20760426;28;20100;-64
2023/04/19 13:46:00;;;;;;;5.28;1.65;;;;;;;;;;20759117;28;20054;-63
2023/04/19 13:56:03;;;;;;;6.40;1.10;;;;;;;;;;20758309;28;20072;-63
2023/04/19 14:06:05;;;;;;;4.07;1.55;;;;;;;;;;20756314;28;20045;-65
2023/04/19 14:16:07;;;;;;;3.45;0.90;;;;;;;;;;20756801;28;20436;-63
2023/04/19 14:26:09;;;;;;;3.38;1.02;;;;;;;;;;20755226;28;20049;-63
2023/04/19 14:36:10;;;;;;;2.15;0.95;;;;;;;;;;20754391;28;20061;-63
2023/04/19 14:46:12;;;;;;;2.22;0.70;;;;;;;;;;20753564;28;20418;-63
2023/04/19 14:56:14;;;;;;;5.72;1.20;;;;;;;;;;20753759;28;20108;-65
2023/04/19 15:06:16;;;;;;;2.03;0.60;;;;;;;;;;20752841;28;20050;-64
2023/04/19 15:16:18;;;;;;;3.33;1.25;;;;;;;;;;20752580;28;20046;-64
2023/04/19 15:26:20;;;;;;;2.05;0.60;;;;;;;;;;20752034;28;20049;-63
2023/04/19 15:36:22;;;;;;;1.30;0.77;;;;;;;;;;20749732;28;20046;-64
2023/04/19 15:46:24;;;;;;;1.90;0.65;;;;;;;;;;20750152;28;20046;-67
2023/04/19 15:56:25;;;;;;;5.63;1.00;;;;;;;;;;20750207;28;20471;-67
2023/04/19 16:06:27;;;;;;;5.18;1.20;;;;;;;;;;20748824;28;20042;-66
2023/04/19 16:16:31;;;;;;;3.33;1.02;;;;;;;;;;20754346;28;20050;-65
2023/04/19 16:26:33;;;;;;;3.92;0.98;;;;;;;;;;20764449;28;20054;-71
2023/04/19 16:36:35;;;;;;;2.90;0.90;;;;;;;;;;20763011;28;20112;-71
2023/04/19 16:46:37;;;;;;;4.72;1.40;;;;;;;;;;20763441;28;20061;-66
2023/04/19 16:56:39;;;;;;;1.95;0.63;;;;;;;;;;20762211;28;20483;-69
2023/04/19 17:06:41;;;;;;;9.90;3.92;;;;;;;;;;20763252;28;20050;-72
2023/04/19 17:16:42;;;;;;;1.98;0.70;;;;;;;;;;20760028;28;20080;-65
2023/04/19 17:26:44;;;;;;;3.75;1.00;;;;;;;;;;20758346;28;20060;-63
2023/04/19 17:36:46;;;;;;;4.93;1.20;;;;;;;;;;20759822;28;20046;-63
2023/04/19 17:46:48;;;;;;;6.45;0.88;;;;;;;;;;20756942;28;20045;-61
2023/04/19 17:56:51;;;;;;;5.50;1.40;;;;;;;;;;20756707;28;20046;-62
2023/04/19 18:06:53;;;;;;;4.43;2.00;;;;;;;;;;20755407;28;20049;-70
2023/04/19 18:16:54;;;;;;;3.30;1.80;;;;;;;;;;20755620;28;20061;-70
2023/04/19 18:26:58;;;;;;;5.40;1.75;;;;;;;;;;20754471;28;20046;-72
2023/04/19 18:37:01;;;;;;;8.02;2.60;;;;;;;;;;20752921;28;20049;-71
2023/04/19 18:47:03;;;;;;;7.05;2.45;;;;;;;;;;20753392;28;20054;-68
2023/04/19 18:57:05;;;;;;;8.18;3.40;;;;;;;;;;20752664;28;20092;-75
2023/04/19 19:07:07;;;;;;;5.00;2.72;;;;;;;;;;20751452;28;20054;-74
2023/04/19 19:17:09;;;;;;;7.80;3.20;;;;;;;;;;20751450;28;20108;-74
2023/04/19 19:27:10;;;;;;;6.50;2.88;;;;;;;;;;20751607;28;20045;-74
2023/04/19 19:37:15;;;;;;;17.55;4.82;;;;;;;;;;20750230;28;20049;-74
2023/04/19 19:47:17;;;;;;;8.20;3.72;;;;;;;;;;20749251;28;20084;-74
2023/04/19 19:57:19;;;;;;;7.32;4.45;;;;;;;;;;20748865;28;20050;-74
2023/04/19 20:07:21;;;;;;;11.15;3.75;;;;;;;;;;20747153;28;20104;-74
2023/04/19 20:17:23;;;;;;;10.10;4.30;;;;;;;;;;20748466;28;20054;-75
2023/04/19 20:27:24;;;;;;;7.78;4.18;;;;;;;;;;20748184;28;20054;-71
2023/04/19 20:37:26;;;;;;;14.18;5.03;;;;;;;;;;20746553;28;20050;-71
2023/04/19 20:47:29;;;;;;;21.08;5.25;;;;;;;;;;20747495;28;20046;-70
2023/04/19 20:57:31;;;;;;;11.05;5.10;;;;;;;;;;20747197;28;20050;-71
2023/04/19 21:07:33;;;;;;;12.40;4.72;;;;;;;;;;20760141;28;20045;-69
2023/04/19 21:17:34;;;;;;;12.77;6.13;;;;;;;;;;20759741;28;20119;-71
2023/04/19 21:27:36;;;;;;;11.55;5.15;;;;;;;;;;20759273;28;20100;-71
2023/04/19 21:37:38;;;;;;;13.35;5.00;;;;;;;;;;20758476;28;20049;-70
2023/04/19 21:47:40;;;;;;;12.05;3.20;;;;;;;;;;20758202;28;20125;-71
2023/04/19 21:57:42;;;;;;;6.70;2.35;;;;;;;;;;20757125;28;20471;-70
2023/04/19 22:07:43;;;;;;;9.60;2.72;;;;;;;;;;20756775;28;20046;-71
2023/04/19 22:17:45;;;;;;;6.13;2.25;;;;;;;;;;20755578;28;20054;-71
2023/04/19 22:27:47;;;;;;;4.78;2.10;;;;;;;;;;20754527;28;20050;-70
2023/04/19 22:37:49;;;;;;;4.60;1.67;;;;;;;;;;20753799;28;20079;-70
2023/04/19 22:47:51;;;;;;;6.85;2.10;;;;;;;;;;20752790;28;20053;-70
2023/04/19 22:57:53;;;;;;;3.97;2.38;;;;;;;;;;20752352;28;20046;-70
2023/04/19 23:07:58;;;;;;;12.98;2.90;;;;;;;;;;20753156;28;20054;-70
2023/04/19 23:18:00;;;;;;;4.65;2.10;;;;;;;;;;20751381;28;20384;-70
2023/04/19 23:28:02;;;;;;;7.13;2.72;;;;;;;;;;20748721;28;20077;-69
2023/04/19 23:38:04;;;;;;;9.48;2.80;;;;;;;;;;20749320;28;20054;-69
2023/04/19 23:48:06;;;;;;;9.25;3.47;;;;;;;;;;20748796;28;20052;-69
2023/04/19 23:58:08;;;;;;;6.53;2.45;;;;;;;;;;20748472;28;20118;-70
